Time;durP1;ratioP1;P1;durP2;ratioP2;P2;SDS_P1;SDS_P2;PMS_P1;PMS_P2;Temp;Humidity;BMP_temperature;BMP_pressure;BME280_temperature;BME280_humidity;BME280_pressure;Samples;Min_cycle;Max_cycle;Signal;HPM_P1;HPM_P2
2022/07/25 00:00:55;;;;;;;1.93;1.83;;;21.00;50.30;;;;;;5245285;28;20278;-46
2022/07/25 00:03:25;;;;;;;1.50;1.40;;;21.00;50.40;;;;;;5242855;28;20209;-45
2022/07/25 00:05:56;;;;;;;2.87;1.67;;;21.00;50.50;;;;;;5248866;28;20182;-46
2022/07/25 00:08:26;;;;;;;3.17;2.00;;;21.00;50.60;;;;;;5248029;28;20213;-45
2022/07/25 00:10:57;;;;;;;2.53;2.43;;;20.90;50.60;;;;;;5242650;28;20179;-45
2022/07/25 00:13:27;;;;;;;2.53;1.40;;;20.90;50.70;;;;;;5245144;28;20199;-45
2022/07/25 00:15:58;;;;;;;2.50;1.80;;;20.90;50.80;;;;;;5241472;28;20212;-46
2022/07/25 00:18:29;;;;;;;1.57;1.50;;;20.90;50.90;;;;;;5232326;28;20191;-46
2022/07/25 00:20:59;;;;;;;1.90;1.83;;;20.90;51.10;;;;;;5238307;28;20195;-47
2022/07/25 00:23:30;;;;;;;3.80;2.30;;;20.90;51.60;;;;;;5230448;28;20249;-46
2022/07/25 00:26:01;;;;;;;1.83;1.73;;;20.90;51.10;;;;;;5247714;28;20247;-47
2022/07/25 00:28:32;;;;;;;1.73;1.63;;;20.80;51.20;;;;;;5246700;28;20496;-45
2022/07/25 00:31:02;;;;;;;1.90;1.50;;;20.80;51.40;;;;;;5250436;28;20170;-45
2022/07/25 00:33:33;;;;;;;1.70;1.60;;;20.80;51.50;;;;;;5248663;28;20205;-46
2022/07/25 00:36:04;;;;;;;2.00;2.00;;;20.70;51.50;;;;;;5223699;28;20643;-46
2022/07/25 00:38:35;;;;;;;2.40;2.20;;;20.70;51.60;;;;;;5250714;28;20182;-47
2022/07/25 00:41:05;;;;;;;2.67;2.20;;;20.60;51.60;;;;;;5245020;28;20183;-46
2022/07/25 00:43:36;;;;;;;2.13;2.03;;;20.60;51.70;;;;;;5232824;28;20199;-45
2022/07/25 00:46:06;;;;;;;3.87;2.07;;;20.60;51.70;;;;;;5251744;28;20178;-46
2022/07/25 00:48:37;;;;;;;1.73;1.70;;;20.50;51.50;;;;;;5250869;28;20209;-46
2022/07/25 00:51:09;;;;;;;2.67;1.90;;;20.50;51.50;;;;;;5251851;28;20280;-46
2022/07/25 00:53:40;;;;;;;2.07;1.97;;;20.50;51.40;;;;;;5240916;28;20807;-46
2022/07/25 00:56:10;;;;;;;3.33;1.80;;;20.50;51.50;;;;;;5243180;28;20500;-46
2022/07/25 00:58:41;;;;;;;1.60;1.60;;;20.50;51.60;;;;;;5250609;28;20183;-45
2022/07/25 01:01:12;;;;;;;1.50;1.50;;;20.40;51.60;;;;;;5251697;28;20768;-48
2022/07/25 01:03:42;;;;;;;3.57;1.73;;;20.40;51.80;;;;;;5241327;28;20503;-46
2022/07/25 01:06:13;;;;;;;1.53;1.43;;;20.40;51.90;;;;;;5248502;28;20574;-46
2022/07/25 01:08:44;;;;;;;1.70;1.70;;;20.30;52.00;;;;;;5246418;28;20210;-45
2022/07/25 01:11:15;;;;;;;1.20;1.20;;;20.30;52.20;;;;;;5242378;28;20642;-45
2022/07/25 01:13:46;;;;;;;1.30;1.30;;;20.30;52.30;;;;;;5246356;28;20468;-45
2022/07/25 01:16:17;;;;;;;1.80;1.70;;;20.20;52.50;;;;;;5247693;28;20171;-46
2022/07/25 01:18:48;;;;;;;1.90;1.83;;;20.10;53.10;;;;;;5250814;28;20263;-46
2022/07/25 01:21:18;;;;;;;2.40;1.83;;;20.10;52.70;;;;;;5251021;28;20518;-46
2022/07/25 01:23:49;;;;;;;1.57;1.57;;;20.10;52.90;;;;;;5262546;28;20598;-43
2022/07/25 01:26:20;;;;;;;3.60;1.40;;;20.00;53.00;;;;;;5245118;28;20193;-46
2022/07/25 01:28:51;;;;;;;1.70;1.60;;;20.00;53.00;;;;;;5245767;28;20232;-45
2022/07/25 01:31:22;;;;;;;1.80;1.63;;;19.90;53.10;;;;;;5250772;28;20570;-47
2022/07/25 01:33:52;;;;;;;1.70;1.60;;;19.90;53.30;;;;;;5241010;28;20512;-45
2022/07/25 01:36:24;;;;;;;5.10;1.43;;;19.90;53.30;;;;;;5250404;28;20198;-45
2022/07/25 01:38:54;;;;;;;3.50;2.10;;;19.90;53.30;;;;;;5250775;28;20193;-45
2022/07/25 01:41:25;;;;;;;1.43;1.43;;;19.80;53.30;;;;;;5236935;28;20917;-45
2022/07/25 01:43:56;;;;;;;1.57;1.57;;;19.80;53.30;;;;;;5245383;28;20199;-45
2022/07/25 01:46:26;;;;;;;1.67;1.67;;;19.80;53.30;;;;;;5246882;28;20662;-46
2022/07/25 01:48:57;;;;;;;1.40;1.30;;;19.80;53.30;;;;;;5244801;28;20202;-45
2022/07/25 01:51:27;;;;;;;2.03;1.93;;;19.80;53.30;;;;;;5241307;28;20206;-45
2022/07/25 01:53:58;;;;;;;1.47;1.47;;;19.80;53.20;;;;;;5247984;28;20259;-45
2022/07/25 01:56:28;;;;;;;1.60;1.60;;;19.70;53.20;;;;;;5242095;28;20230;-46
2022/07/25 01:58:59;;;;;;;1.33;1.33;;;19.70;53.10;;;;;;5250531;28;20186;-45
2022/07/25 02:01:30;;;;;;;1.93;1.87;;;19.70;53.20;;;;;;5250222;28;20192;-45
2022/07/25 02:04:00;;;;;;;4.93;1.77;;;19.60;53.20;;;;;;5246535;28;20232;-46
2022/07/25 02:06:33;;;;;;;1.90;1.80;;;19.60;53.20;;;;;;5248941;28;20194;-47
2022/07/25 02:09:03;;;;;;;1.87;1.80;;;19.60;53.20;;;;;;5249309;28;20599;-45
2022/07/25 02:11:35;;;;;;;1.70;1.70;;;19.60;53.30;;;;;;5247491;28;20441;-45
2022/07/25 02:14:06;;;;;;;1.70;1.60;;;19.60;53.30;;;;;;5247957;28;20260;-46
2022/07/25 02:16:36;;;;;;;1.47;1.47;;;19.50;53.40;;;;;;5247531;28;20416;-46
2022/07/25 02:19:07;;;;;;;1.80;1.57;;;19.50;53.50;;;;;;5239103;28;20238;-46
2022/07/25 02:21:37;;;;;;;1.80;1.80;;;19.50;53.60;;;;;;5229718;28;20206;-47
2022/07/25 02:24:08;;;;;;;1.80;1.70;;;19.40;53.70;;;;;;5244285;28;20713;-44
2022/07/25 02:26:39;;;;;;;1.63;1.53;;;19.40;53.80;;;;;;5246919;28;20554;-45
2022/07/25 02:29:09;;;;;;;7.67;1.23;;;19.40;53.90;;;;;;5250152;28;20198;-46
2022/07/25 02:31:40;;;;;;;2.00;1.90;;;19.40;53.90;;;;;;5247121;28;20196;-44
2022/07/25 02:34:11;;;;;;;1.60;1.50;;;19.40;54.00;;;;;;5236064;28;20179;-44
2022/07/25 02:36:42;;;;;;;2.30;2.20;;;19.30;53.90;;;;;;5248501;28;20235;-44
2022/07/25 02:39:12;;;;;;;1.27;1.27;;;19.30;53.90;;;;;;5242966;28;20727;-45
2022/07/25 02:41:43;;;;;;;5.37;1.70;;;19.30;54.00;;;;;;5246762;28;20650;-44
2022/07/25 02:44:13;;;;;;;1.97;1.87;;;19.30;54.00;;;;;;5242731;28;20170;-49
2022/07/25 02:46:44;;;;;;;1.90;1.70;;;19.30;54.10;;;;;;5244196;28;20174;-44
2022/07/25 02:49:15;;;;;;;2.00;1.90;;;19.30;54.00;;;;;;5248980;28;20188;-46
2022/07/25 02:51:45;;;;;;;1.40;1.40;;;19.30;54.00;;;;;;5243702;28;20190;-44
2022/07/25 02:54:16;;;;;;;1.60;1.50;;;19.30;54.00;;;;;;5230482;28;20531;-44
2022/07/25 02:56:46;;;;;;;9.93;2.00;;;19.30;54.10;;;;;;5246395;28;20175;-44
2022/07/25 02:59:17;;;;;;;2.73;2.13;;;19.30;54.10;;;;;;5243951;28;20190;-44
2022/07/25 03:01:47;;;;;;;1.73;1.63;;;19.20;54.10;;;;;;5245046;28;20751;-44
2022/07/25 03:04:18;;;;;;;2.00;1.90;;;19.20;54.20;;;;;;5239472;28;20178;-44
2022/07/25 03:06:49;;;;;;;2.20;2.07;;;19.20;54.20;;;;;;5245613;28;20292;-45
2022/07/25 03:09:19;;;;;;;1.80;1.80;;;19.20;54.30;;;;;;5245105;28;20231;-44
2022/07/25 03:11:50;;;;;;;1.70;1.60;;;19.20;54.40;;;;;;5245836;28;20182;-44
2022/07/25 03:14:21;;;;;;;2.80;1.87;;;19.20;54.40;;;;;;5238485;28;20651;-44
2022/07/25 03:16:52;;;;;;;1.70;1.70;;;19.20;54.50;;;;;;5247885;28;20559;-44
2022/07/25 03:19:22;;;;;;;2.00;1.87;;;19.10;54.50;;;;;;5250022;28;20507;-43
2022/07/25 03:21:53;;;;;;;2.63;2.20;;;19.10;54.50;;;;;;5239371;28;20942;-44
2022/07/25 03:24:24;;;;;;;2.10;2.00;;;19.10;54.60;;;;;;5265764;22;20226;-48
2022/07/25 03:26:54;;;;;;;2.10;2.00;;;19.10;54.80;;;;;;5257743;28;20176;-45
2022/07/25 03:29:25;;;;;;;2.20;2.10;;;19.00;54.80;;;;;;5245371;28;20187;-48
2022/07/25 03:31:56;;;;;;;2.47;2.27;;;19.00;55.00;;;;;;5258808;28;20197;-48
2022/07/25 03:34:26;;;;;;;1.73;1.63;;;19.00;55.00;;;;;;5237675;28;20530;-49
2022/07/25 03:36:59;;;;;;;1.40;1.40;;;19.00;55.00;;;;;;5246011;28;20669;-47
2022/07/25 03:39:30;;;;;;;1.77;1.67;;;19.00;55.00;;;;;;5243543;28;20174;-47
2022/07/25 03:42:00;;;;;;;1.70;1.60;;;19.00;55.00;;;;;;5246539;28;20433;-48
2022/07/25 03:44:31;;;;;;;2.03;1.93;;;19.10;55.00;;;;;;5230014;28;20207;-47
2022/07/25 03:47:01;;;;;;;1.60;1.60;;;19.10;55.10;;;;;;5230421;28;20179;-48
2022/07/25 03:49:32;;;;;;;1.60;1.60;;;19.10;55.00;;;;;;5241094;28;20657;-48
2022/07/25 03:52:03;;;;;;;2.20;2.00;;;19.10;54.90;;;;;;5254461;28;20269;-49
2022/07/25 03:54:33;;;;;;;2.73;2.53;;;19.10;55.00;;;;;;5250105;28;20725;-51
2022/07/25 03:57:04;;;;;;;2.40;2.20;;;19.10;55.00;;;;;;5238923;28;20206;-47
2022/07/25 03:59:35;;;;;;;1.97;1.93;;;19.10;55.00;;;;;;5237774;28;20190;-48
2022/07/25 04:02:05;;;;;;;1.77;1.77;;;19.10;55.10;;;;;;5244473;28;20186;-48
2022/07/25 04:04:36;;;;;;;2.77;1.40;;;19.10;55.10;;;;;;5250358;28;20206;-48
2022/07/25 04:07:06;;;;;;;1.27;1.27;;;19.10;55.20;;;;;;5241365;28;20209;-48
2022/07/25 04:09:37;;;;;;;2.03;1.93;;;19.10;55.20;;;;;;5253145;28;20709;-48
2022/07/25 04:12:07;;;;;;;1.93;1.93;;;19.10;55.20;;;;;;5239362;28;20185;-48
2022/07/25 04:14:38;;;;;;;2.40;2.20;;;19.10;55.30;;;;;;5227145;28;20279;-48
2022/07/25 04:17:08;;;;;;;2.43;2.03;;;19.20;55.30;;;;;;5241325;28;20198;-48
2022/07/25 04:19:39;;;;;;;2.17;2.03;;;19.20;55.20;;;;;;5251094;28;20257;-49
2022/07/25 04:22:10;;;;;;;2.00;1.90;;;19.20;55.10;;;;;;5250444;28;20190;-48
2022/07/25 04:24:40;;;;;;;2.20;2.10;;;19.20;55.20;;;;;;5248843;28;20243;-48
2022/07/25 04:27:11;;;;;;;2.47;2.07;;;19.20;55.20;;;;;;5246742;28;20218;-48
2022/07/25 04:29:41;;;;;;;1.83;1.73;;;19.20;55.20;;;;;;5237429;28;20187;-48
2022/07/25 04:32:13;;;;;;;2.30;1.20;;;19.30;55.20;;;;;;5242097;28;20270;-48
2022/07/25 04:34:44;;;;;;;1.80;1.70;;;19.40;55.20;;;;;;5248387;28;20170;-48
2022/07/25 04:37:14;;;;;;;2.13;1.90;;;19.50;55.00;;;;;;5246715;28;20804;-48
2022/07/25 04:39:45;;;;;;;2.23;2.20;;;19.50;54.80;;;;;;5241516;28;20241;-48
2022/07/25 04:42:15;;;;;;;2.30;2.20;;;19.50;54.80;;;;;;5244398;28;20225;-48
2022/07/25 04:44:46;;;;;;;2.20;2.10;;;19.60;54.70;;;;;;5245387;28;20267;-48
2022/07/25 04:47:16;;;;;;;1.80;1.70;;;19.70;54.70;;;;;;5238756;28;20203;-49
2022/07/25 04:49:47;;;;;;;1.97;1.87;;;19.80;54.60;;;;;;5249969;28;20205;-50
2022/07/25 04:52:18;;;;;;;1.97;1.80;;;19.90;54.30;;;;;;5231073;28;20193;-48
2022/07/25 04:54:48;;;;;;;2.00;1.90;;;20.00;53.90;;;;;;5237999;28;20190;-48
2022/07/25 04:57:19;;;;;;;1.97;1.87;;;20.10;53.70;;;;;;5235635;28;20258;-49
2022/07/25 04:59:49;;;;;;;2.07;1.97;;;20.30;53.50;;;;;;5248491;28;20642;-50
2022/07/25 05:02:20;;;;;;;1.70;1.60;;;20.70;52.70;;;;;;5239405;28;20269;-48
2022/07/25 05:04:51;;;;;;;3.70;1.90;;;21.70;51.00;;;;;;5231327;28;20186;-48
2022/07/25 05:07:22;;;;;;;2.67;2.13;;;22.90;49.00;;;;;;5241443;28;20546;-50
2022/07/25 05:09:53;;;;;;;1.70;1.60;;;23.70;47.10;;;;;;5244184;28;20443;-49
2022/07/25 05:12:23;;;;;;;3.10;2.73;;;24.40;46.20;;;;;;5243918;28;20182;-49
2022/07/25 05:14:54;;;;;;;2.50;2.40;;;25.40;44.40;;;;;;5241472;28;20432;-48
2022/07/25 05:17:24;;;;;;;3.47;2.20;;;26.50;42.40;;;;;;5236484;28;20186;-50
2022/07/25 05:19:57;;;;;;;3.80;1.70;;;27.70;40.60;;;;;;5240431;28;20236;-49
2022/07/25 05:22:27;;;;;;;2.13;2.00;;;29.00;38.40;;;;;;5243458;28;20194;-48
2022/07/25 05:24:58;;;;;;;2.30;1.97;;;29.80;36.30;;;;;;5238590;28;20443;-50
2022/07/25 05:27:29;;;;;;;4.27;1.97;;;30.50;35.60;;;;;;5238872;28;20278;-48
2022/07/25 05:29:59;;;;;;;1.60;1.57;;;30.90;34.50;;;;;;5242550;28;20182;-49
2022/07/25 05:32:30;;;;;;;1.47;1.37;;;31.30;33.80;;;;;;5236761;28;20588;-50
2022/07/25 05:35:01;;;;;;;1.70;1.70;;;31.80;33.10;;;;;;5237088;28;20232;-49
2022/07/25 05:37:33;;;;;;;4.97;2.13;;;32.10;32.70;;;;;;5238696;28;20194;-48
2022/07/25 05:40:06;;;;;;;2.97;2.10;;;32.20;32.40;;;;;;5245487;28;20443;-48
2022/07/25 05:42:36;;;;;;;2.63;2.07;;;32.70;31.70;;;;;;5237543;28;20585;-49
2022/07/25 05:45:07;;;;;;;2.30;2.13;;;33.10;31.40;;;;;;5239563;28;20535;-49
2022/07/25 05:47:38;;;;;;;1.83;1.80;;;33.80;30.40;;;;;;5243453;28;20573;-50
2022/07/25 05:50:09;;;;;;;2.10;2.00;;;34.00;30.00;;;;;;5241150;28;20174;-50
2022/07/25 05:52:39;;;;;;;2.30;1.80;;;34.40;29.80;;;;;;5245445;28;20194;-50
2022/07/25 05:55:10;;;;;;;10.20;3.67;;;35.10;29.50;;;;;;5241221;28;20186;-51
2022/07/25 05:57:40;;;;;;;1.73;1.63;;;35.40;29.10;;;;;;5245293;28;20276;-50
2022/07/25 06:00:12;;;;;;;4.50;2.00;;;35.60;28.60;;;;;;5245285;28;20182;-50
2022/07/25 06:02:42;;;;;;;4.43;1.92;;;36.10;28.10;;;;;;5244896;28;20205;-49
2022/07/25 06:05:13;;;;;;;1.70;1.60;;;36.50;27.90;;;;;;5247212;28;20190;-49
2022/07/25 06:07:43;;;;;;;1.70;1.60;;;37.20;27.60;;;;;;5244366;28;20213;-49
2022/07/25 06:10:14;;;;;;;1.80;1.70;;;37.40;27.00;;;;;;5240413;28;20174;-48
2022/07/25 06:12:44;;;;;;;2.28;2.17;;;38.00;26.80;;;;;;5242118;28;20612;-51
2022/07/25 06:15:15;;;;;;;4.20;1.98;;;39.10;26.00;;;;;;5243077;28;20570;-49
2022/07/25 06:17:46;;;;;;;2.30;1.85;;;39.90;25.40;;;;;;5246413;28;20557;-49
2022/07/25 06:20:16;;;;;;;1.77;1.67;;;40.30;25.10;;;;;;5245241;28;20871;-50
2022/07/25 06:22:47;;;;;;;2.30;2.20;;;40.90;24.60;;;;;;5248090;28;20224;-49
2022/07/25 06:25:18;;;;;;;6.57;1.92;;;40.60;24.00;;;;;;5239874;28;20867;-49
2022/07/25 06:27:48;;;;;;;2.78;2.15;;;40.10;24.20;;;;;;5244574;28;20224;-50
2022/07/25 06:30:19;;;;;;;2.88;2.30;;;39.60;24.50;;;;;;5228024;28;20595;-49
2022/07/25 06:32:50;;;;;;;3.25;3.03;;;39.20;25.00;;;;;;5243869;28;20214;-48
2022/07/25 06:35:20;;;;;;;2.72;1.75;;;39.80;25.40;;;;;;5237421;28;20185;-50
2022/07/25 06:37:51;;;;;;;2.60;2.30;;;40.10;24.60;;;;;;5242549;28;20201;-50
2022/07/25 06:40:21;;;;;;;2.40;2.20;;;40.40;24.60;;;;;;5245845;28;20657;-49
2022/07/25 06:42:52;;;;;;;3.00;2.65;;;40.90;23.70;;;;;;5228855;28;20704;-49
2022/07/25 06:45:23;;;;;;;2.63;2.42;;;41.00;23.90;;;;;;5246201;28;20185;-50
2022/07/25 06:47:54;;;;;;;2.45;2.17;;;41.40;23.70;;;;;;5246726;28;20665;-49
2022/07/25 06:50:24;;;;;;;5.85;2.78;;;41.40;23.20;;;;;;5242833;28;20177;-48
2022/07/25 06:52:55;;;;;;;2.85;2.58;;;40.40;23.80;;;;;;5246428;28;20618;-50
2022/07/25 06:55:25;;;;;;;2.50;2.40;;;39.60;24.30;;;;;;5238834;28;20316;-49
2022/07/25 06:57:56;;;;;;;2.50;2.30;;;40.10;24.80;;;;;;5243904;28;20195;-49
2022/07/25 07:00:26;;;;;;;2.58;2.38;;;40.30;24.40;;;;;;5243354;28;20258;-49
2022/07/25 07:03:00;;;;;;;2.80;2.60;;;40.60;24.10;;;;;;5241397;28;20209;-50
2022/07/25 07:05:32;;;;;;;3.22;2.95;;;41.20;23.80;;;;;;5220911;28;20630;-48
2022/07/25 07:08:03;;;;;;;4.63;3.08;;;41.90;23.50;;;;;;5238302;28;20210;-49
2022/07/25 07:10:34;;;;;;;3.38;3.05;;;41.80;23.20;;;;;;5230864;28;20177;-49
2022/07/25 07:13:14;;;;;;;3.35;3.10;;;41.50;23.10;;;;;;5239816;28;20209;-49
2022/07/25 07:15:48;;;;;;;3.20;2.53;;;40.80;24.00;;;;;;5241232;28;20181;-50
2022/07/25 07:18:20;;;;;;;14.32;3.38;;;41.40;24.30;;;;;;5233126;28;20200;-48
2022/07/25 07:20:51;;;;;;;2.67;2.58;;;42.00;23.30;;;;;;5203261;28;20324;-49
2022/07/25 07:23:22;;;;;;;4.45;3.10;;;42.30;23.30;;;;;;5238275;28;20255;-49
2022/07/25 07:25:52;;;;;;;2.95;2.50;;;42.20;23.20;;;;;;5239288;28;20621;-49
2022/07/25 07:28:23;;;;;;;6.60;2.83;;;42.70;22.80;;;;;;5235204;28;20289;-49
2022/07/25 07:30:53;;;;;;;2.95;2.85;;;42.50;22.70;;;;;;5231752;28;20178;-49
2022/07/25 07:33:24;;;;;;;3.30;3.00;;;42.70;23.00;;;;;;5242063;28;20787;-50
2022/07/25 07:35:55;;;;;;;9.23;3.38;;;43.00;22.60;;;;;;5238767;28;20177;-49
2022/07/25 07:38:26;;;;;;;2.80;2.70;;;42.80;22.60;;;;;;5247018;28;20173;-51
2022/07/25 07:40:57;;;;;;;3.05;2.88;;;42.20;23.10;;;;;;5240829;28;20182;-50
2022/07/25 07:43:30;;;;;;;3.42;2.28;;;42.60;22.70;;;;;;5239088;28;20228;-51
2022/07/25 07:46:01;;;;;;;3.88;3.13;;;42.90;22.90;;;;;;5235420;28;20189;-56
2022/07/25 07:48:32;;;;;;;8.77;3.20;;;43.40;22.70;;;;;;5237729;28;20662;-50
2022/07/25 07:51:03;;;;;;;3.15;2.95;;;44.00;22.10;;;;;;5244749;28;20192;-50
2022/07/25 07:56:23;;;;;;;5.35;3.30;;;44.10;22.10;;;;;;5239055;28;20170;-50
2022/07/25 07:58:54;;;;;;;3.10;2.90;;;43.70;22.10;;;;;;5239501;28;20185;-50
2022/07/25 08:01:25;;;;;;;6.00;3.60;;;43.80;22.00;;;;;;5238510;28;20192;-50
2022/07/25 08:03:56;;;;;;;3.28;2.92;;;43.30;22.50;;;;;;5245998;28;20204;-50
2022/07/25 08:06:27;;;;;;;4.65;3.33;;;42.90;22.40;;;;;;5246379;28;20617;-49
2022/07/25 08:08:57;;;;;;;4.70;3.15;;;43.40;22.80;;;;;;5240086;28;20205;-49
2022/07/25 08:11:28;;;;;;;3.53;3.15;;;43.30;22.50;;;;;;5242279;28;20181;-49
2022/07/25 08:13:59;;;;;;;4.18;3.72;;;43.40;22.20;;;;;;5240163;28;20538;-49
2022/07/25 08:16:29;;;;;;;8.73;3.40;;;43.10;22.40;;;;;;5246278;28;20230;-48
2022/07/25 08:19:00;;;;;;;4.00;3.67;;;43.00;22.50;;;;;;5245864;28;20232;-49
2022/07/25 08:21:31;;;;;;;5.93;3.90;;;42.90;22.50;;;;;;5239695;28;20550;-49
2022/07/25 08:24:01;;;;;;;5.28;3.40;;;43.20;22.60;;;;;;5245362;28;20249;-49
2022/07/25 08:26:32;;;;;;;4.30;3.80;;;42.80;22.80;;;;;;5246784;28;20271;-49
2022/07/25 08:29:03;;;;;;;4.32;3.65;;;43.00;23.40;;;;;;5243369;28;20213;-48
2022/07/25 08:31:34;;;;;;;3.97;3.72;;;43.20;22.90;;;;;;5245993;28;20173;-50
2022/07/25 08:34:04;;;;;;;3.40;3.13;;;43.40;22.50;;;;;;5240464;28;20201;-48
2022/07/25 08:36:35;;;;;;;5.65;4.18;;;43.60;22.70;;;;;;5227046;28;20774;-50
2022/07/25 08:39:06;;;;;;;5.63;4.45;;;43.40;22.40;;;;;;5250165;28;20185;-50
2022/07/25 08:41:40;;;;;;;4.07;3.78;;;42.90;22.90;;;;;;5249421;28;20185;-50
2022/07/25 08:44:13;;;;;;;7.32;4.68;;;43.10;22.90;;;;;;5239383;28;20282;-50
2022/07/25 08:46:44;;;;;;;3.75;3.55;;;43.40;22.90;;;;;;5243223;28;20177;-49
2022/07/25 08:49:14;;;;;;;3.75;3.45;;;43.50;22.70;;;;;;5243817;28;20206;-48
2022/07/25 08:51:45;;;;;;;4.07;3.88;;;43.80;22.90;;;;;;5239656;28;20185;-49
2022/07/25 08:54:16;;;;;;;7.07;3.92;;;43.30;23.00;;;;;;5246428;28;20204;-49
2022/07/25 08:56:46;;;;;;;4.75;4.35;;;42.20;23.70;;;;;;5236600;28;20189;-50
2022/07/25 08:59:17;;;;;;;8.73;4.10;;;40.60;25.10;;;;;;5243909;28;20685;-49
2022/07/25 09:01:47;;;;;;;5.82;4.10;;;39.50;26.10;;;;;;5248328;28;20645;-49
2022/07/25 09:04:18;;;;;;;16.75;5.18;;;38.10;27.70;;;;;;5245194;28;20309;-49
2022/07/25 09:06:50;;;;;;;5.85;5.35;;;36.60;28.90;;;;;;5239729;28;20252;-48
2022/07/25 09:09:32;;;;;;;4.90;4.20;;;35.70;30.40;;;;;;5237916;28;20271;-48
2022/07/25 09:12:04;;;;;;;6.25;5.72;;;34.80;31.60;;;;;;5240595;28;20175;-50
2022/07/25 09:14:42;;;;;;;6.10;4.82;;;34.20;32.40;;;;;;5237385;28;20250;-48
2022/07/25 09:17:13;;;;;;;8.40;5.00;;;33.80;32.80;;;;;;5239505;28;20252;-49
2022/07/25 09:19:52;;;;;;;4.95;4.55;;;33.50;33.20;;;;;;5241531;28;20208;-49
2022/07/25 09:22:22;;;;;;;9.45;5.25;;;33.30;34.70;;;;;;5232757;28;20204;-48
2022/07/25 09:24:53;;;;;;;6.53;5.93;;;33.10;33.90;;;;;;5270550;22;20232;-48
2022/07/25 09:27:24;;;;;;;4.77;4.27;;;33.00;34.10;;;;;;5260465;28;20680;-48
2022/07/25 09:29:54;;;;;;;5.70;5.20;;;33.10;34.80;;;;;;5251581;28;20253;-48
2022/07/25 09:32:25;;;;;;;5.40;4.90;;;33.10;34.50;;;;;;5254350;28;20644;-49
2022/07/25 09:34:56;;;;;;;6.17;5.57;;;33.10;34.80;;;;;;5262735;28;20215;-50
2022/07/25 09:37:26;;;;;;;7.27;5.60;;;33.00;35.10;;;;;;5261084;28;20184;-49
2022/07/25 09:39:57;;;;;;;9.60;4.80;;;32.90;35.50;;;;;;5257506;28;20185;-49
2022/07/25 09:42:31;;;;;;;5.70;5.30;;;33.00;35.50;;;;;;5256752;28;20276;-50
2022/07/25 09:45:06;;;;;;;8.50;5.70;;;33.20;35.70;;;;;;5259335;28;20197;-50
2022/07/25 09:47:58;;;;;;;5.00;4.60;;;33.20;35.70;;;;;;5264963;28;20279;-49
2022/07/25 09:50:30;;;;;;;12.80;5.43;;;33.20;35.70;;;;;;5272287;28;20271;-49
2022/07/25 09:53:01;;;;;;;7.33;5.30;;;33.10;35.60;;;;;;5265778;28;20189;-49
2022/07/25 09:55:32;;;;;;;8.23;5.20;;;33.20;35.60;;;;;;5258737;28;20193;-50
2022/07/25 09:58:03;;;;;;;5.13;4.67;;;33.20;35.70;;;;;;5256230;28;20254;-49
2022/07/25 10:00:34;;;;;;;6.43;5.83;;;33.40;35.80;;;;;;5265098;28;20188;-49
2022/07/25 10:03:15;;;;;;;5.90;5.37;;;33.40;35.90;;;;;;5259732;28;20176;-51
2022/07/25 10:06:07;;;;;;;5.80;5.30;;;33.30;35.60;;;;;;5266410;28;20222;-48
2022/07/25 10:08:39;;;;;;;5.53;5.00;;;33.30;36.40;;;;;;5255067;28;20668;-50
2022/07/25 10:11:21;;;;;;;5.90;5.40;;;33.30;35.90;;;;;;5260409;28;20527;-51
2022/07/25 10:13:53;;;;;;;6.50;5.90;;;33.30;35.90;;;;;;5261865;28;20672;-50
2022/07/25 10:16:25;;;;;;;12.18;5.35;;;33.30;35.70;;;;;;5256008;28;20181;-45
2022/07/25 10:18:57;;;;;;;12.87;6.33;;;33.40;36.00;;;;;;5258324;28;20642;-48
2022/07/25 10:21:28;;;;;;;5.38;4.97;;;33.40;35.60;;;;;;5262715;28;20181;-50
2022/07/25 10:24:05;;;;;;;5.55;5.15;;;33.40;34.90;;;;;;5254171;28;20620;-49
2022/07/25 10:26:38;;;;;;;5.87;4.80;;;33.50;35.00;;;;;;5256233;28;20261;-46
2022/07/25 10:29:10;;;;;;;7.10;5.70;;;33.40;35.10;;;;;;5256444;28;20231;-50
2022/07/25 10:31:44;;;;;;;9.70;5.23;;;33.40;35.30;;;;;;5258896;28;20170;-50
2022/07/25 10:34:15;;;;;;;5.38;5.03;;;33.40;35.50;;;;;;5251124;28;20203;-49
2022/07/25 10:36:48;;;;;;;5.53;4.95;;;33.40;35.50;;;;;;5260546;28;20668;-50
2022/07/25 10:39:21;;;;;;;5.97;5.47;;;33.60;35.50;;;;;;5250340;28;20189;-48
2022/07/25 10:42:01;;;;;;;6.07;5.28;;;33.70;34.80;;;;;;5252708;28;20192;-50
2022/07/25 10:44:47;;;;;;;15.67;5.23;;;33.80;34.90;;;;;;5254703;28;20192;-50
2022/07/25 10:47:21;;;;;;;6.10;5.68;;;33.80;34.40;;;;;;5272599;28;20177;-50
2022/07/25 10:49:57;;;;;;;7.25;6.30;;;33.90;34.50;;;;;;5259975;28;20201;-50
2022/07/25 10:52:29;;;;;;;9.48;6.65;;;33.90;34.60;;;;;;5263368;28;20173;-48
2022/07/25 10:55:00;;;;;;;9.02;6.13;;;33.80;34.60;;;;;;5255302;28;20293;-50
2022/07/25 10:57:31;;;;;;;20.55;6.18;;;33.70;34.70;;;;;;5254929;28;20189;-48
2022/07/25 11:00:07;;;;;;;8.15;7.35;;;33.70;34.30;;;;;;5265912;28;20177;-48
2022/07/25 11:02:38;;;;;;;6.63;5.75;;;33.80;34.30;;;;;;5263407;28;20261;-50
2022/07/25 11:05:09;;;;;;;5.97;5.30;;;33.80;34.10;;;;;;5257867;28;20212;-52
2022/07/25 11:07:51;;;;;;;7.32;6.60;;;33.80;34.00;;;;;;5258311;28;20293;-50
2022/07/25 11:10:26;;;;;;;11.75;5.95;;;33.80;34.20;;;;;;5260814;28;20180;-51
2022/07/25 11:12:57;;;;;;;6.10;5.53;;;33.90;34.40;;;;;;5255005;28;20646;-49
2022/07/25 11:15:28;;;;;;;5.88;5.38;;;34.00;34.70;;;;;;5257856;28;20186;-50
2022/07/25 11:17:58;;;;;;;8.13;5.90;;;34.30;34.20;;;;;;5259319;28;20213;-50
2022/07/25 11:20:29;;;;;;;9.35;5.97;;;34.40;33.60;;;;;;5281978;28;20249;-50
2022/07/25 11:22:59;;;;;;;7.32;6.18;;;34.60;33.50;;;;;;5264123;28;20564;-50
2022/07/25 11:25:30;;;;;;;6.35;5.75;;;34.70;33.10;;;;;;5265645;28;20210;-51
2022/07/25 11:28:02;;;;;;;10.82;6.93;;;34.80;32.60;;;;;;5261294;28;20217;-50
2022/07/25 11:30:32;;;;;;;6.80;6.20;;;35.00;32.00;;;;;;5264348;28;20174;-48
2022/07/25 11:33:03;;;;;;;7.05;5.22;;;34.80;31.70;;;;;;5261889;28;20670;-52
2022/07/25 11:35:34;;;;;;;5.47;4.95;;;34.80;32.20;;;;;;5256205;28;20181;-51
2022/07/25 11:38:04;;;;;;;8.07;5.65;;;34.80;32.60;;;;;;5257756;28;20193;-47
2022/07/25 11:40:42;;;;;;;8.43;5.30;;;34.90;31.70;;;;;;5259790;28;20284;-45
2022/07/25 11:43:24;;;;;;;10.55;5.38;;;34.70;32.00;;;;;;5272300;28;20204;-48
2022/07/25 11:45:56;;;;;;;6.68;5.50;;;34.50;32.30;;;;;;5256578;28;20173;-52
2022/07/25 11:48:39;;;;;;;6.05;5.32;;;34.40;32.50;;;;;;5257403;28;20212;-51
2022/07/25 11:51:12;;;;;;;5.85;5.43;;;34.60;32.80;;;;;;5260253;28;20219;-47
2022/07/25 11:53:49;;;;;;;5.78;5.28;;;34.60;31.90;;;;;;5257082;28;20736;-49
2022/07/25 11:56:22;;;;;;;5.63;5.22;;;34.60;30.80;;;;;;5254865;28;20525;-49
2022/07/25 11:58:57;;;;;;;8.93;5.20;;;34.80;31.70;;;;;;5258911;28;20181;-50
2022/07/25 12:01:40;;;;;;;5.80;5.20;;;34.90;31.70;;;;;;5259312;28;20689;-45
2022/07/25 12:04:15;;;;;;;4.78;4.47;;;34.90;30.50;;;;;;5275870;28;20208;-49
2022/07/25 12:06:48;;;;;;;5.97;4.88;;;35.00;30.50;;;;;;5257183;28;20189;-49
2022/07/25 12:09:21;;;;;;;9.30;6.40;;;35.00;30.40;;;;;;5264601;28;20256;-50
2022/07/25 12:12:02;;;;;;;6.88;5.82;;;35.00;30.60;;;;;;5261406;28;20193;-49
2022/07/25 12:14:42;;;;;;;7.22;6.60;;;35.10;29.90;;;;;;5276408;28;20254;-49
2022/07/25 12:17:12;;;;;;;6.07;5.35;;;35.30;30.50;;;;;;5258335;28;20173;-49
2022/07/25 12:19:46;;;;;;;6.05;5.32;;;35.30;30.20;;;;;;5257879;28;20182;-50
2022/07/25 12:22:16;;;;;;;8.00;7.22;;;35.20;30.50;;;;;;5273660;28;20233;-50
2022/07/25 12:24:47;;;;;;;8.20;5.63;;;35.00;30.80;;;;;;5261651;28;20217;-48
2022/07/25 12:27:18;;;;;;;5.25;4.88;;;35.10;30.90;;;;;;5261762;28;20181;-51
2022/07/25 12:29:48;;;;;;;5.57;4.80;;;35.20;31.00;;;;;;5259681;28;20669;-50
2022/07/25 12:32:19;;;;;;;6.18;5.68;;;35.20;31.00;;;;;;5263466;28;20173;-52
2022/07/25 12:34:50;;;;;;;6.13;5.60;;;35.10;30.70;;;;;;5262999;28;20204;-49
2022/07/25 12:37:21;;;;;;;12.63;5.80;;;35.10;30.70;;;;;;5260985;28;20177;-50
2022/07/25 12:39:52;;;;;;;5.40;4.45;;;35.10;30.80;;;;;;5262466;28;20182;-51
2022/07/25 12:42:24;;;;;;;7.07;5.35;;;35.20;31.00;;;;;;5254926;28;20579;-48
2022/07/25 12:44:55;;;;;;;6.30;5.50;;;35.40;31.00;;;;;;5269830;28;20684;-50
2022/07/25 12:47:27;;;;;;;6.15;5.70;;;35.30;30.60;;;;;;5265423;28;20205;-48
2022/07/25 12:49:58;;;;;;;5.20;4.90;;;35.20;30.10;;;;;;5266605;28;20185;-51
2022/07/25 12:52:28;;;;;;;5.80;5.40;;;35.20;30.20;;;;;;5257384;28;20182;-49
2022/07/25 12:54:59;;;;;;;6.93;5.53;;;35.30;30.30;;;;;;5256840;28;20206;-49
2022/07/25 12:57:29;;;;;;;6.13;5.10;;;35.20;30.20;;;;;;5283717;28;20207;-50
2022/07/25 13:00:00;;;;;;;6.05;5.45;;;35.10;30.50;;;;;;5263432;28;20189;-49
2022/07/25 13:02:31;;;;;;;6.25;5.75;;;35.20;31.50;;;;;;5251894;28;20189;-48
2022/07/25 13:05:02;;;;;;;6.30;5.75;;;35.40;30.10;;;;;;5267206;28;20209;-49
2022/07/25 13:07:33;;;;;;;5.10;4.70;;;35.60;30.40;;;;;;5261358;28;20212;-49
2022/07/25 13:10:05;;;;;;;5.88;5.47;;;35.60;30.40;;;;;;5255775;28;20256;-49